sensor_id;sensor_type;location;lat;lon;timestamp;P1;durP1;ratioP1;P2;durP2;ratioP2
78004;SDS011;67209;51.698;-0.292;2023-06-10T00:01:30;31.25;;;9.15;;
78004;SDS011;67209;51.698;-0.292;2023-06-10T00:03:58;29.75;;;9.35;;
78004;SDS011;67209;51.698;-0.292;2023-06-10T00:06:24;24.45;;;7.05;;
78004;SDS011;67209;51.698;-0.292;2023-06-10T00:08:51;18.48;;;4.53;;
78004;SDS011;67209;51.698;-0.292;2023-06-10T00:11:17;23.05;;;5.88;;
78004;SDS011;67209;51.698;-0.292;2023-06-10T00:13:43;31.20;;;9.55;;
78004;SDS011;67209;51.698;-0.292;2023-06-10T00:16:09;26.13;;;7.18;;
78004;SDS011;67209;51.698;-0.292;2023-06-10T00:18:35;35.45;;;9.55;;
78004;SDS011;67209;51.698;-0.292;2023-06-10T00:21:03;33.75;;;8.90;;
78004;SDS011;67209;51.698;-0.292;2023-06-10T00:23:30;24.88;;;7.65;;
78004;SDS011;67209;51.698;-0.292;2023-06-10T00:25:58;37.28;;;9.90;;
78004;SDS011;67209;51.698;-0.292;2023-06-10T00:28:24;26.63;;;9.20;;
78004;SDS011;67209;51.698;-0.292;2023-06-10T00:30:51;23.30;;;7.70;;
78004;SDS011;67209;51.698;-0.292;2023-06-10T00:33:17;33.42;;;10.27;;
78004;SDS011;67209;51.698;-0.292;2023-06-10T00:35:43;34.80;;;10.80;;
78004;SDS011;67209;51.698;-0.292;2023-06-10T00:38:09;41.00;;;11.48;;
78004;SDS011;67209;51.698;-0.292;2023-06-10T00:40:41;44.88;;;12.27;;
78004;SDS011;67209;51.698;-0.292;2023-06-10T00:43:07;92.80;;;41.50;;
78004;SDS011;67209;51.698;-0.292;2023-06-10T00:45:33;127.07;;;66.68;;
78004;SDS011;67209;51.698;-0.292;2023-06-10T00:48:00;50.15;;;13.82;;
78004;SDS011;67209;51.698;-0.292;2023-06-10T00:50:26;58.10;;;23.38;;
78004;SDS011;67209;51.698;-0.292;2023-06-10T00:52:53;52.10;;;19.38;;
78004;SDS011;67209;51.698;-0.292;2023-06-10T00:55:19;50.53;;;12.40;;
78004;SDS011;67209;51.698;-0.292;2023-06-10T00:57:46;27.70;;;8.60;;
78004;SDS011;67209;51.698;-0.292;2023-06-10T01:00:16;38.85;;;9.75;;
78004;SDS011;67209;51.698;-0.292;2023-06-10T01:02:42;39.97;;;10.60;;
78004;SDS011;67209;51.698;-0.292;2023-06-10T01:05:09;38.58;;;10.30;;
78004;SDS011;67209;51.698;-0.292;2023-06-10T01:07:39;36.50;;;8.15;;
78004;SDS011;67209;51.698;-0.292;2023-06-10T01:15:21;76.85;;;49.15;;
78004;SDS011;67209;51.698;-0.292;2023-06-10T01:20:24;37.40;;;11.65;;
78004;SDS011;67209;51.698;-0.292;2023-06-10T01:22:52;29.33;;;9.95;;
78004;SDS011;67209;51.698;-0.292;2023-06-10T01:25:19;26.50;;;9.68;;
78004;SDS011;67209;51.698;-0.292;2023-06-10T01:27:52;32.88;;;10.73;;
78004;SDS011;67209;51.698;-0.292;2023-06-10T01:30:19;25.58;;;8.82;;
78004;SDS011;67209;51.698;-0.292;2023-06-10T01:32:50;28.67;;;9.73;;
78004;SDS011;67209;51.698;-0.292;2023-06-10T01:35:17;31.25;;;7.38;;
78004;SDS011;67209;51.698;-0.292;2023-06-10T01:37:45;32.22;;;10.05;;
78004;SDS011;67209;51.698;-0.292;2023-06-10T01:40:12;31.30;;;11.00;;
78004;SDS011;67209;51.698;-0.292;2023-06-10T01:42:39;32.78;;;11.05;;
78004;SDS011;67209;51.698;-0.292;2023-06-10T01:45:05;27.40;;;10.15;;
78004;SDS011;67209;51.698;-0.292;2023-06-10T01:47:31;28.23;;;10.73;;
78004;SDS011;67209;51.698;-0.292;2023-06-10T01:49:57;29.13;;;9.35;;
78004;SDS011;67209;51.698;-0.292;2023-06-10T01:52:23;21.75;;;8.77;;
78004;SDS011;67209;51.698;-0.292;2023-06-10T01:54:49;23.48;;;9.38;;
78004;SDS011;67209;51.698;-0.292;2023-06-10T01:57:15;29.45;;;10.15;;
78004;SDS011;67209;51.698;-0.292;2023-06-10T01:59:41;25.05;;;8.55;;
78004;SDS011;67209;51.698;-0.292;2023-06-10T02:02:09;15.40;;;5.43;;
78004;SDS011;67209;51.698;-0.292;2023-06-10T02:04:39;21.95;;;9.38;;
78004;SDS011;67209;51.698;-0.292;2023-06-10T02:07:05;23.77;;;9.88;;
78004;SDS011;67209;51.698;-0.292;2023-06-10T02:09:31;19.75;;;8.88;;
78004;SDS011;67209;51.698;-0.292;2023-06-10T02:12:00;24.80;;;8.70;;
78004;SDS011;67209;51.698;-0.292;2023-06-10T02:14:26;21.30;;;8.98;;
78004;SDS011;67209;51.698;-0.292;2023-06-10T02:16:52;21.80;;;8.02;;
78004;SDS011;67209;51.698;-0.292;2023-06-10T02:19:21;22.77;;;8.80;;
78004;SDS011;67209;51.698;-0.292;2023-06-10T02:21:48;20.13;;;7.68;;
78004;SDS011;67209;51.698;-0.292;2023-06-10T02:24:14;25.38;;;9.48;;
78004;SDS011;67209;51.698;-0.292;2023-06-10T02:26:40;17.40;;;7.05;;
78004;SDS011;67209;51.698;-0.292;2023-06-10T02:29:06;23.20;;;9.15;;
78004;SDS011;67209;51.698;-0.292;2023-06-10T02:31:32;23.58;;;9.18;;
78004;SDS011;67209;51.698;-0.292;2023-06-10T02:34:00;22.13;;;8.48;;
78004;SDS011;67209;51.698;-0.292;2023-06-10T02:36:26;25.33;;;9.00;;
78004;SDS011;67209;51.698;-0.292;2023-06-10T02:38:52;28.15;;;8.88;;
78004;SDS011;67209;51.698;-0.292;2023-06-10T02:41:19;29.48;;;9.85;;
78004;SDS011;67209;51.698;-0.292;2023-06-10T02:43:46;31.55;;;10.00;;
78004;SDS011;67209;51.698;-0.292;2023-06-10T02:46:12;25.90;;;8.52;;
78004;SDS011;67209;51.698;-0.292;2023-06-10T02:48:42;27.92;;;8.73;;
78004;SDS011;67209;51.698;-0.292;2023-06-10T02:51:09;22.55;;;7.82;;
78004;SDS011;67209;51.698;-0.292;2023-06-10T02:53:35;26.67;;;9.18;;
78004;SDS011;67209;51.698;-0.292;2023-06-10T02:56:01;35.72;;;11.73;;
78004;SDS011;67209;51.698;-0.292;2023-06-10T02:58:27;45.55;;;11.32;;
78004;SDS011;67209;51.698;-0.292;2023-06-10T03:00:53;39.67;;;10.68;;
78004;SDS011;67209;51.698;-0.292;2023-06-10T03:03:19;33.47;;;10.32;;
78004;SDS011;67209;51.698;-0.292;2023-06-10T03:05:47;30.67;;;9.60;;
78004;SDS011;67209;51.698;-0.292;2023-06-10T03:08:13;34.22;;;10.00;;
78004;SDS011;67209;51.698;-0.292;2023-06-10T03:10:39;33.05;;;10.10;;
78004;SDS011;67209;51.698;-0.292;2023-06-10T03:13:05;28.58;;;9.65;;
78004;SDS011;67209;51.698;-0.292;2023-06-10T03:15:31;42.38;;;11.90;;
78004;SDS011;67209;51.698;-0.292;2023-06-10T03:17:59;34.60;;;10.02;;
78004;SDS011;67209;51.698;-0.292;2023-06-10T03:20:25;33.92;;;8.52;;
78004;SDS011;67209;51.698;-0.292;2023-06-10T03:22:53;38.47;;;9.52;;
78004;SDS011;67209;51.698;-0.292;2023-06-10T03:25:19;34.15;;;10.10;;
78004;SDS011;67209;51.698;-0.292;2023-06-10T03:27:46;33.10;;;10.27;;
78004;SDS011;67209;51.698;-0.292;2023-06-10T03:30:12;32.80;;;10.23;;
78004;SDS011;67209;51.698;-0.292;2023-06-10T03:32:38;41.58;;;10.40;;
78004;SDS011;67209;51.698;-0.292;2023-06-10T03:35:06;38.03;;;11.45;;
78004;SDS011;67209;51.698;-0.292;2023-06-10T03:37:32;47.85;;;13.20;;
78004;SDS011;67209;51.698;-0.292;2023-06-10T03:39:58;49.90;;;12.65;;
78004;SDS011;67209;51.698;-0.292;2023-06-10T03:42:24;53.50;;;11.70;;
78004;SDS011;67209;51.698;-0.292;2023-06-10T03:44:50;39.38;;;11.65;;
78004;SDS011;67209;51.698;-0.292;2023-06-10T03:47:16;35.38;;;12.15;;
78004;SDS011;67209;51.698;-0.292;2023-06-10T03:49:42;33.78;;;10.70;;
78004;SDS011;67209;51.698;-0.292;2023-06-10T03:52:08;37.72;;;11.35;;
78004;SDS011;67209;51.698;-0.292;2023-06-10T03:54:34;39.65;;;10.90;;
78004;SDS011;67209;51.698;-0.292;2023-06-10T03:57:00;45.25;;;11.25;;
78004;SDS011;67209;51.698;-0.292;2023-06-10T03:59:27;42.53;;;12.10;;
78004;SDS011;67209;51.698;-0.292;2023-06-10T04:01:53;49.83;;;14.75;;
78004;SDS011;67209;51.698;-0.292;2023-06-10T04:04:19;60.97;;;15.40;;
78004;SDS011;67209;51.698;-0.292;2023-06-10T04:06:46;48.88;;;16.92;;
78004;SDS011;67209;51.698;-0.292;2023-06-10T04:09:13;59.80;;;23.88;;
78004;SDS011;67209;51.698;-0.292;2023-06-10T04:11:39;51.78;;;24.42;;
78004;SDS011;67209;51.698;-0.292;2023-06-10T04:14:05;58.40;;;20.23;;
78004;SDS011;67209;51.698;-0.292;2023-06-10T04:16:31;51.17;;;22.83;;
78004;SDS011;67209;51.698;-0.292;2023-06-10T04:18:58;43.97;;;14.90;;
78004;SDS011;67209;51.698;-0.292;2023-06-10T04:21:25;52.30;;;35.30;;
78004;SDS011;67209;51.698;-0.292;2023-06-10T04:23:51;63.58;;;42.38;;
78004;SDS011;67209;51.698;-0.292;2023-06-10T04:26:17;77.40;;;46.53;;
78004;SDS011;67209;51.698;-0.292;2023-06-10T04:28:43;60.15;;;34.35;;
78004;SDS011;67209;51.698;-0.292;2023-06-10T04:31:10;80.20;;;55.83;;
78004;SDS011;67209;51.698;-0.292;2023-06-10T04:33:36;114.85;;;70.75;;
78004;SDS011;67209;51.698;-0.292;2023-06-10T04:36:02;118.88;;;81.75;;
78004;SDS011;67209;51.698;-0.292;2023-06-10T04:38:28;120.15;;;88.40;;
78004;SDS011;67209;51.698;-0.292;2023-06-10T04:40:56;161.18;;;108.35;;
78004;SDS011;67209;51.698;-0.292;2023-06-10T04:43:22;66.63;;;45.55;;
78004;SDS011;67209;51.698;-0.292;2023-06-10T04:45:48;40.00;;;12.63;;
78004;SDS011;67209;51.698;-0.292;2023-06-10T04:48:14;53.95;;;13.50;;
78004;SDS011;67209;51.698;-0.292;2023-06-10T04:50:40;42.13;;;14.63;;
78004;SDS011;67209;51.698;-0.292;2023-06-10T04:53:06;38.33;;;12.23;;
78004;SDS011;67209;51.698;-0.292;2023-06-10T04:55:32;40.67;;;11.55;;
78004;SDS011;67209;51.698;-0.292;2023-06-10T04:57:59;80.05;;;54.85;;
78004;SDS011;67209;51.698;-0.292;2023-06-10T05:00:25;151.02;;;98.43;;
78004;SDS011;67209;51.698;-0.292;2023-06-10T05:02:52;118.47;;;75.97;;
78004;SDS011;67209;51.698;-0.292;2023-06-10T05:05:18;44.30;;;12.20;;
78004;SDS011;67209;51.698;-0.292;2023-06-10T05:07:44;33.70;;;11.10;;
78004;SDS011;67209;51.698;-0.292;2023-06-10T05:10:10;73.40;;;41.10;;
78004;SDS011;67209;51.698;-0.292;2023-06-10T05:12:40;57.78;;;37.05;;
78004;SDS011;67209;51.698;-0.292;2023-06-10T05:15:06;86.57;;;61.47;;
78004;SDS011;67209;51.698;-0.292;2023-06-10T05:17:32;91.97;;;57.08;;
78004;SDS011;67209;51.698;-0.292;2023-06-10T05:19:59;36.72;;;11.27;;
78004;SDS011;67209;51.698;-0.292;2023-06-10T05:22:25;124.22;;;83.45;;
78004;SDS011;67209;51.698;-0.292;2023-06-10T05:24:52;115.60;;;70.55;;
78004;SDS011;67209;51.698;-0.292;2023-06-10T05:27:18;174.45;;;111.50;;
78004;SDS011;67209;51.698;-0.292;2023-06-10T05:29:47;95.55;;;61.28;;
78004;SDS011;67209;51.698;-0.292;2023-06-10T05:32:13;92.15;;;56.55;;
78004;SDS011;67209;51.698;-0.292;2023-06-10T05:34:39;145.77;;;97.40;;
78004;SDS011;67209;51.698;-0.292;2023-06-10T05:37:05;128.90;;;80.22;;
78004;SDS011;67209;51.698;-0.292;2023-06-10T05:39:31;175.18;;;114.35;;
78004;SDS011;67209;51.698;-0.292;2023-06-10T05:41:57;190.23;;;115.65;;
78004;SDS011;67209;51.698;-0.292;2023-06-10T05:44:24;229.50;;;136.98;;
78004;SDS011;67209;51.698;-0.292;2023-06-10T05:46:50;173.20;;;108.57;;
78004;SDS011;67209;51.698;-0.292;2023-06-10T05:49:16;320.67;;;183.57;;
78004;SDS011;67209;51.698;-0.292;2023-06-10T05:51:43;341.20;;;195.75;;
78004;SDS011;67209;51.698;-0.292;2023-06-10T05:54:09;311.25;;;177.38;;
78004;SDS011;67209;51.698;-0.292;2023-06-10T05:56:35;77.75;;;44.60;;
78004;SDS011;67209;51.698;-0.292;2023-06-10T05:59:01;277.90;;;157.63;;
78004;SDS011;67209;51.698;-0.292;2023-06-10T06:01:27;273.63;;;154.95;;
78004;SDS011;67209;51.698;-0.292;2023-06-10T06:03:53;175.95;;;106.18;;
78004;SDS011;67209;51.698;-0.292;2023-06-10T06:06:19;167.98;;;106.90;;
78004;SDS011;67209;51.698;-0.292;2023-06-10T06:08:45;166.68;;;106.53;;
78004;SDS011;67209;51.698;-0.292;2023-06-10T06:11:11;173.20;;;110.03;;
78004;SDS011;67209;51.698;-0.292;2023-06-10T06:13:38;213.15;;;130.02;;
78004;SDS011;67209;51.698;-0.292;2023-06-10T06:16:05;346.10;;;192.40;;
78004;SDS011;67209;51.698;-0.292;2023-06-10T06:18:31;314.30;;;175.32;;
78004;SDS011;67209;51.698;-0.292;2023-06-10T06:20:59;318.05;;;175.85;;
78004;SDS011;67209;51.698;-0.292;2023-06-10T06:23:25;274.35;;;155.25;;
78004;SDS011;67209;51.698;-0.292;2023-06-10T06:25:51;326.52;;;186.15;;
78004;SDS011;67209;51.698;-0.292;2023-06-10T06:28:18;257.10;;;146.23;;
78004;SDS011;67209;51.698;-0.292;2023-06-10T06:30:46;289.85;;;163.25;;
78004;SDS011;67209;51.698;-0.292;2023-06-10T06:33:12;384.08;;;212.57;;
78004;SDS011;67209;51.698;-0.292;2023-06-10T06:35:38;341.73;;;192.15;;
78004;SDS011;67209;51.698;-0.292;2023-06-10T06:38:05;376.73;;;205.95;;
78004;SDS011;67209;51.698;-0.292;2023-06-10T06:40:31;397.65;;;221.93;;
78004;SDS011;67209;51.698;-0.292;2023-06-10T06:42:57;304.73;;;171.85;;
78004;SDS011;67209;51.698;-0.292;2023-06-10T06:45:23;214.63;;;127.82;;
78004;SDS011;67209;51.698;-0.292;2023-06-10T06:47:49;325.50;;;179.70;;
78004;SDS011;67209;51.698;-0.292;2023-06-10T06:50:15;255.68;;;146.95;;
78004;SDS011;67209;51.698;-0.292;2023-06-10T06:52:41;278.42;;;154.75;;
78004;SDS011;67209;51.698;-0.292;2023-06-10T06:55:07;232.90;;;136.85;;
78004;SDS011;67209;51.698;-0.292;2023-06-10T06:57:33;293.23;;;161.90;;
78004;SDS011;67209;51.698;-0.292;2023-06-10T06:59:59;330.42;;;183.20;;
78004;SDS011;67209;51.698;-0.292;2023-06-10T07:02:25;337.73;;;189.38;;
78004;SDS011;67209;51.698;-0.292;2023-06-10T07:04:51;359.48;;;199.38;;
78004;SDS011;67209;51.698;-0.292;2023-06-10T07:07:20;317.67;;;179.95;;
78004;SDS011;67209;51.698;-0.292;2023-06-10T07:09:46;364.90;;;208.40;;
78004;SDS011;67209;51.698;-0.292;2023-06-10T07:12:12;410.83;;;231.55;;
78004;SDS011;67209;51.698;-0.292;2023-06-10T07:14:38;408.55;;;234.88;;
78004;SDS011;67209;51.698;-0.292;2023-06-10T07:17:04;318.15;;;182.23;;
78004;SDS011;67209;51.698;-0.292;2023-06-10T07:19:30;305.00;;;178.45;;
78004;SDS011;67209;51.698;-0.292;2023-06-10T07:21:56;248.88;;;148.40;;
78004;SDS011;67209;51.698;-0.292;2023-06-10T07:24:22;232.70;;;140.00;;
78004;SDS011;67209;51.698;-0.292;2023-06-10T07:26:48;224.38;;;132.57;;
78004;SDS011;67209;51.698;-0.292;2023-06-10T07:29:14;258.60;;;153.10;;
78004;SDS011;67209;51.698;-0.292;2023-06-10T07:31:40;248.30;;;148.15;;
78004;SDS011;67209;51.698;-0.292;2023-06-10T07:34:07;263.02;;;153.45;;
78004;SDS011;67209;51.698;-0.292;2023-06-10T07:36:33;273.35;;;161.10;;
78004;SDS011;67209;51.698;-0.292;2023-06-10T07:39:00;275.45;;;158.30;;
78004;SDS011;67209;51.698;-0.292;2023-06-10T07:41:26;293.35;;;167.20;;
78004;SDS011;67209;51.698;-0.292;2023-06-10T07:43:54;340.63;;;193.32;;
78004;SDS011;67209;51.698;-0.292;2023-06-10T07:46:21;256.80;;;150.05;;
78004;SDS011;67209;51.698;-0.292;2023-06-10T07:48:48;257.52;;;152.73;;
78004;SDS011;67209;51.698;-0.292;2023-06-10T07:51:15;316.95;;;183.45;;
78004;SDS011;67209;51.698;-0.292;2023-06-10T07:53:41;250.75;;;147.00;;
78004;SDS011;67209;51.698;-0.292;2023-06-10T07:56:07;182.00;;;113.90;;
78004;SDS011;67209;51.698;-0.292;2023-06-10T07:58:33;269.35;;;160.48;;
78004;SDS011;67209;51.698;-0.292;2023-06-10T08:00:59;282.95;;;167.38;;
78004;SDS011;67209;51.698;-0.292;2023-06-10T08:03:25;192.35;;;119.60;;
78004;SDS011;67209;51.698;-0.292;2023-06-10T08:05:52;329.83;;;188.02;;
78004;SDS011;67209;51.698;-0.292;2023-06-10T08:08:18;350.80;;;197.98;;
78004;SDS011;67209;51.698;-0.292;2023-06-10T08:10:44;301.58;;;170.23;;
78004;SDS011;67209;51.698;-0.292;2023-06-10T08:13:10;321.73;;;178.68;;
78004;SDS011;67209;51.698;-0.292;2023-06-10T08:15:36;208.25;;;121.88;;
78004;SDS011;67209;51.698;-0.292;2023-06-10T08:18:02;256.92;;;151.10;;
78004;SDS011;67209;51.698;-0.292;2023-06-10T08:20:28;241.98;;;137.85;;
78004;SDS011;67209;51.698;-0.292;2023-06-10T08:22:54;320.30;;;183.40;;
78004;SDS011;67209;51.698;-0.292;2023-06-10T08:25:20;268.17;;;151.38;;
78004;SDS011;67209;51.698;-0.292;2023-06-10T08:27:47;146.45;;;101.45;;
78004;SDS011;67209;51.698;-0.292;2023-06-10T08:30:13;91.85;;;62.80;;
78004;SDS011;67209;51.698;-0.292;2023-06-10T08:32:39;60.25;;;16.08;;
78004;SDS011;67209;51.698;-0.292;2023-06-10T08:35:06;220.25;;;127.88;;
78004;SDS011;67209;51.698;-0.292;2023-06-10T08:37:32;181.50;;;118.60;;
78004;SDS011;67209;51.698;-0.292;2023-06-10T08:39:58;297.95;;;172.93;;
78004;SDS011;67209;51.698;-0.292;2023-06-10T08:44:54;151.43;;;102.95;;
78004;SDS011;67209;51.698;-0.292;2023-06-10T08:47:24;246.25;;;143.18;;
78004;SDS011;67209;51.698;-0.292;2023-06-10T08:49:50;250.88;;;148.45;;
78004;SDS011;67209;51.698;-0.292;2023-06-10T08:52:19;315.08;;;180.55;;
78004;SDS011;67209;51.698;-0.292;2023-06-10T08:54:49;274.05;;;158.50;;
78004;SDS011;67209;51.698;-0.292;2023-06-10T08:57:18;66.60;;;41.35;;
78004;SDS011;67209;51.698;-0.292;2023-06-10T08:59:47;290.40;;;171.73;;
78004;SDS011;67209;51.698;-0.292;2023-06-10T09:02:14;177.38;;;113.55;;
78004;SDS011;67209;51.698;-0.292;2023-06-10T09:04:42;70.13;;;54.10;;
78004;SDS011;67209;51.698;-0.292;2023-06-10T09:07:09;75.60;;;61.85;;
78004;SDS011;67209;51.698;-0.292;2023-06-10T09:09:36;54.13;;;41.08;;
78004;SDS011;67209;51.698;-0.292;2023-06-10T09:12:02;29.73;;;11.57;;
78004;SDS011;67209;51.698;-0.292;2023-06-10T09:14:29;32.92;;;12.65;;
78004;SDS011;67209;51.698;-0.292;2023-06-10T09:16:55;35.03;;;16.33;;
78004;SDS011;67209;51.698;-0.292;2023-06-10T09:19:23;32.20;;;11.55;;
78004;SDS011;67209;51.698;-0.292;2023-06-10T09:21:49;35.28;;;13.50;;
78004;SDS011;67209;51.698;-0.292;2023-06-10T09:24:15;75.05;;;53.65;;
78004;SDS011;67209;51.698;-0.292;2023-06-10T09:26:41;59.47;;;39.88;;
78004;SDS011;67209;51.698;-0.292;2023-06-10T09:29:08;68.05;;;53.30;;
78004;SDS011;67209;51.698;-0.292;2023-06-10T09:31:36;86.07;;;63.75;;
78004;SDS011;67209;51.698;-0.292;2023-06-10T09:34:13;50.20;;;39.78;;
78004;SDS011;67209;51.698;-0.292;2023-06-10T09:36:39;44.30;;;23.58;;
78004;SDS011;67209;51.698;-0.292;2023-06-10T09:39:13;43.45;;;14.15;;
78004;SDS011;67209;51.698;-0.292;2023-06-10T09:41:41;35.30;;;12.10;;
78004;SDS011;67209;51.698;-0.292;2023-06-10T09:44:17;31.60;;;11.38;;
78004;SDS011;67209;51.698;-0.292;2023-06-10T09:46:50;32.15;;;10.48;;
78004;SDS011;67209;51.698;-0.292;2023-06-10T09:49:19;33.40;;;12.15;;
78004;SDS011;67209;51.698;-0.292;2023-06-10T09:51:51;95.32;;;56.45;;
78004;SDS011;67209;51.698;-0.292;2023-06-10T09:54:18;32.28;;;12.27;;
78004;SDS011;67209;51.698;-0.292;2023-06-10T09:56:46;77.45;;;47.28;;
78004;SDS011;67209;51.698;-0.292;2023-06-10T09:59:12;87.53;;;55.63;;
78004;SDS011;67209;51.698;-0.292;2023-06-10T10:01:38;104.03;;;57.10;;
78004;SDS011;67209;51.698;-0.292;2023-06-10T10:04:04;39.38;;;12.93;;
78004;SDS011;67209;51.698;-0.292;2023-06-10T10:06:30;85.65;;;53.75;;
78004;SDS011;67209;51.698;-0.292;2023-06-10T10:08:57;44.35;;;27.88;;
78004;SDS011;67209;51.698;-0.292;2023-06-10T10:11:23;35.05;;;12.60;;
78004;SDS011;67209;51.698;-0.292;2023-06-10T10:13:51;40.95;;;29.60;;
78004;SDS011;67209;51.698;-0.292;2023-06-10T10:16:19;40.72;;;13.85;;
78004;SDS011;67209;51.698;-0.292;2023-06-10T10:18:48;31.90;;;11.60;;
78004;SDS011;67209;51.698;-0.292;2023-06-10T10:21:15;38.45;;;17.02;;
78004;SDS011;67209;51.698;-0.292;2023-06-10T10:26:47;26.67;;;9.73;;
78004;SDS011;67209;51.698;-0.292;2023-06-10T10:29:22;28.17;;;9.73;;
78004;SDS011;67209;51.698;-0.292;2023-06-10T10:31:52;29.15;;;10.85;;
78004;SDS011;67209;51.698;-0.292;2023-06-10T10:34:42;22.80;;;9.27;;
78004;SDS011;67209;51.698;-0.292;2023-06-10T10:37:09;35.60;;;11.60;;
78004;SDS011;67209;51.698;-0.292;2023-06-10T10:39:35;24.33;;;9.40;;
78004;SDS011;67209;51.698;-0.292;2023-06-10T10:42:02;26.58;;;9.68;;
78004;SDS011;67209;51.698;-0.292;2023-06-10T10:44:29;19.05;;;8.60;;
78004;SDS011;67209;51.698;-0.292;2023-06-10T10:46:56;22.23;;;8.85;;
78004;SDS011;67209;51.698;-0.292;2023-06-10T10:49:22;26.63;;;9.80;;
78004;SDS011;67209;51.698;-0.292;2023-06-10T10:51:55;40.50;;;12.60;;
78004;SDS011;67209;51.698;-0.292;2023-06-10T10:54:28;53.50;;;31.20;;
78004;SDS011;67209;51.698;-0.292;2023-06-10T10:57:11;27.88;;;9.52;;
78004;SDS011;67209;51.698;-0.292;2023-06-10T10:59:59;72.50;;;40.78;;
78004;SDS011;67209;51.698;-0.292;2023-06-10T11:02:35;80.25;;;42.10;;
78004;SDS011;67209;51.698;-0.292;2023-06-10T11:05:04;38.00;;;14.10;;
78004;SDS011;67209;51.698;-0.292;2023-06-10T11:07:31;35.20;;;11.48;;
78004;SDS011;67209;51.698;-0.292;2023-06-10T11:15:11;19.50;;;8.77;;
78004;SDS011;67209;51.698;-0.292;2023-06-10T11:17:37;19.15;;;8.40;;
78004;SDS011;67209;51.698;-0.292;2023-06-10T11:23:08;24.27;;;8.77;;
78004;SDS011;67209;51.698;-0.292;2023-06-10T11:25:40;22.95;;;8.95;;
78004;SDS011;67209;51.698;-0.292;2023-06-10T11:28:19;28.10;;;9.73;;
78004;SDS011;67209;51.698;-0.292;2023-06-10T11:30:45;46.30;;;29.58;;
78004;SDS011;67209;51.698;-0.292;2023-06-10T11:33:16;29.88;;;12.60;;
78004;SDS011;67209;51.698;-0.292;2023-06-10T11:35:43;35.90;;;10.98;;
78004;SDS011;67209;51.698;-0.292;2023-06-10T11:38:09;52.55;;;36.30;;
78004;SDS011;67209;51.698;-0.292;2023-06-10T11:40:36;32.95;;;15.63;;
78004;SDS011;67209;51.698;-0.292;2023-06-10T11:43:03;29.27;;;10.27;;
78004;SDS011;67209;51.698;-0.292;2023-06-10T11:45:30;29.73;;;10.52;;
78004;SDS011;67209;51.698;-0.292;2023-06-10T11:47:59;30.52;;;10.07;;
78004;SDS011;67209;51.698;-0.292;2023-06-10T11:50:29;31.52;;;12.07;;
78004;SDS011;67209;51.698;-0.292;2023-06-10T11:52:55;30.00;;;8.27;;
78004;SDS011;67209;51.698;-0.292;2023-06-10T11:55:23;28.40;;;9.50;;
78004;SDS011;67209;51.698;-0.292;2023-06-10T11:57:49;29.75;;;9.93;;
78004;SDS011;67209;51.698;-0.292;2023-06-10T12:00:22;27.13;;;8.55;;
78004;SDS011;67209;51.698;-0.292;2023-06-10T12:02:57;26.98;;;9.00;;
78004;SDS011;67209;51.698;-0.292;2023-06-10T12:05:23;38.30;;;9.68;;
78004;SDS011;67209;51.698;-0.292;2023-06-10T12:07:50;33.63;;;9.05;;
78004;SDS011;67209;51.698;-0.292;2023-06-10T12:10:31;29.20;;;8.48;;
78004;SDS011;67209;51.698;-0.292;2023-06-10T12:12:57;37.42;;;10.00;;
78004;SDS011;67209;51.698;-0.292;2023-06-10T12:15:23;35.90;;;10.27;;
78004;SDS011;67209;51.698;-0.292;2023-06-10T12:17:50;34.30;;;9.95;;
78004;SDS011;67209;51.698;-0.292;2023-06-10T12:20:27;35.03;;;10.20;;
78004;SDS011;67209;51.698;-0.292;2023-06-10T12:22:53;21.90;;;8.05;;
78004;SDS011;67209;51.698;-0.292;2023-06-10T12:25:24;20.33;;;6.32;;
78004;SDS011;67209;51.698;-0.292;2023-06-10T12:27:51;21.70;;;7.45;;
78004;SDS011;67209;51.698;-0.292;2023-06-10T12:30:21;27.48;;;8.18;;
78004;SDS011;67209;51.698;-0.292;2023-06-10T12:32:48;19.90;;;7.80;;
78004;SDS011;67209;51.698;-0.292;2023-06-10T12:35:16;30.10;;;9.32;;
78004;SDS011;67209;51.698;-0.292;2023-06-10T12:37:43;22.30;;;8.50;;
78004;SDS011;67209;51.698;-0.292;2023-06-10T12:40:25;21.73;;;8.93;;
78004;SDS011;67209;51.698;-0.292;2023-06-10T12:42:51;23.92;;;8.02;;
78004;SDS011;67209;51.698;-0.292;2023-06-10T12:45:25;22.45;;;8.73;;
78004;SDS011;67209;51.698;-0.292;2023-06-10T12:47:53;21.20;;;7.85;;
78004;SDS011;67209;51.698;-0.292;2023-06-10T12:50:29;25.70;;;8.88;;
78004;SDS011;67209;51.698;-0.292;2023-06-10T12:52:56;22.58;;;8.52;;
78004;SDS011;67209;51.698;-0.292;2023-06-10T12:55:22;34.22;;;9.45;;
78004;SDS011;67209;51.698;-0.292;2023-06-10T12:57:51;22.23;;;8.18;;
78004;SDS011;67209;51.698;-0.292;2023-06-10T13:00:18;40.75;;;10.68;;
78004;SDS011;67209;51.698;-0.292;2023-06-10T13:02:44;41.65;;;10.93;;
78004;SDS011;67209;51.698;-0.292;2023-06-10T13:05:10;25.80;;;9.00;;
78004;SDS011;67209;51.698;-0.292;2023-06-10T13:07:36;30.90;;;9.65;;
78004;SDS011;67209;51.698;-0.292;2023-06-10T13:10:02;31.35;;;10.55;;
78004;SDS011;67209;51.698;-0.292;2023-06-10T13:12:28;37.00;;;10.65;;
78004;SDS011;67209;51.698;-0.292;2023-06-10T13:14:55;42.80;;;12.18;;
78004;SDS011;67209;51.698;-0.292;2023-06-10T13:17:21;31.23;;;9.35;;
78004;SDS011;67209;51.698;-0.292;2023-06-10T13:19:47;23.50;;;8.10;;
78004;SDS011;67209;51.698;-0.292;2023-06-10T13:22:14;27.23;;;8.98;;
78004;SDS011;67209;51.698;-0.292;2023-06-10T13:24:40;23.85;;;8.10;;
78004;SDS011;67209;51.698;-0.292;2023-06-10T13:27:08;19.58;;;7.75;;
78004;SDS011;67209;51.698;-0.292;2023-06-10T13:29:34;28.40;;;8.90;;
78004;SDS011;67209;51.698;-0.292;2023-06-10T13:32:00;17.55;;;6.95;;
78004;SDS011;67209;51.698;-0.292;2023-06-10T13:34:27;18.35;;;7.60;;
78004;SDS011;67209;51.698;-0.292;2023-06-10T13:36:53;17.48;;;6.97;;
78004;SDS011;67209;51.698;-0.292;2023-06-10T13:39:19;24.20;;;8.23;;
78004;SDS011;67209;51.698;-0.292;2023-06-10T13:41:45;19.88;;;8.40;;
78004;SDS011;67209;51.698;-0.292;2023-06-10T13:44:11;24.00;;;8.45;;
78004;SDS011;67209;51.698;-0.292;2023-06-10T13:46:37;25.48;;;8.65;;
78004;SDS011;67209;51.698;-0.292;2023-06-10T13:49:03;26.58;;;8.10;;
78004;SDS011;67209;51.698;-0.292;2023-06-10T13:51:29;28.08;;;8.55;;
78004;SDS011;67209;51.698;-0.292;2023-06-10T13:53:55;25.85;;;8.60;;
78004;SDS011;67209;51.698;-0.292;2023-06-10T13:56:21;27.33;;;9.00;;
78004;SDS011;67209;51.698;-0.292;2023-06-10T13:58:48;37.53;;;10.90;;
78004;SDS011;67209;51.698;-0.292;2023-06-10T14:01:14;29.55;;;9.32;;
78004;SDS011;67209;51.698;-0.292;2023-06-10T14:03:40;31.27;;;9.50;;
78004;SDS011;67209;51.698;-0.292;2023-06-10T14:06:06;25.92;;;8.50;;
78004;SDS011;67209;51.698;-0.292;2023-06-10T14:08:32;27.25;;;8.38;;
78004;SDS011;67209;51.698;-0.292;2023-06-10T14:10:58;25.40;;;9.05;;
78004;SDS011;67209;51.698;-0.292;2023-06-10T14:13:24;28.30;;;8.90;;
78004;SDS011;67209;51.698;-0.292;2023-06-10T14:15:50;23.42;;;8.30;;
78004;SDS011;67209;51.698;-0.292;2023-06-10T14:18:17;21.20;;;7.20;;
78004;SDS011;67209;51.698;-0.292;2023-06-10T14:20:43;36.22;;;17.33;;
78004;SDS011;67209;51.698;-0.292;2023-06-10T14:23:09;30.42;;;9.70;;
78004;SDS011;67209;51.698;-0.292;2023-06-10T14:25:35;47.55;;;12.48;;
78004;SDS011;67209;51.698;-0.292;2023-06-10T14:28:02;29.38;;;8.75;;